createdAt,value
2018-05-13T00:02:11.570Z,18.57
2018-05-13T00:04:39.157Z,22.47
2018-05-13T00:07:07.168Z,26.57
2018-05-13T00:09:34.811Z,19.83
2018-05-13T00:12:02.381Z,19.97
2018-05-13T00:14:30.044Z,19.60
2018-05-13T00:16:57.978Z,17.30
2018-05-13T00:19:25.620Z,20.13
2018-05-13T00:21:53.256Z,16.20
2018-05-13T00:24:20.820Z,17.07
2018-05-13T00:26:48.381Z,17.57
2018-05-13T00:29:15.973Z,16.40
2018-05-13T00:31:43.788Z,17.40
2018-05-13T00:34:11.372Z,19.80
2018-05-13T00:36:39.268Z,16.00
2018-05-13T00:39:06.855Z,21.20
2018-05-13T00:41:34.457Z,20.80
2018-05-13T00:44:02.051Z,13.63
2018-05-13T00:46:29.657Z,24.03
2018-05-13T00:48:57.529Z,15.07
2018-05-13T00:51:25.712Z,16.67
2018-05-13T00:53:53.934Z,15.57
2018-05-13T00:56:24.302Z,13.47
2018-05-13T00:58:53.045Z,12.73
2018-05-13T01:01:23.183Z,13.60
2018-05-13T01:03:51.455Z,15.47
2018-05-13T01:06:19.283Z,13.77
2018-05-13T01:08:46.866Z,12.67
2018-05-13T01:11:14.522Z,15.50
2018-05-13T01:13:42.164Z,16.03
2018-05-13T01:16:09.719Z,13.03
2018-05-13T01:18:37.417Z,14.60
2018-05-13T01:21:04.997Z,23.53
2018-05-13T01:23:32.798Z,15.97
2018-05-13T01:26:00.488Z,16.37
2018-05-13T01:28:28.292Z,14.03
2018-05-13T01:30:55.852Z,17.57
2018-05-13T01:33:23.558Z,20.10
2018-05-13T01:35:51.137Z,16.67
2018-05-13T01:38:18.692Z,18.30
2018-05-13T01:40:46.348Z,12.23
2018-05-13T01:43:14.386Z,17.03
2018-05-13T01:45:41.958Z,24.03
2018-05-13T01:48:09.599Z,17.90
2018-05-13T01:50:37.312Z,16.17
2018-05-13T01:53:04.948Z,15.90
2018-05-13T01:55:32.864Z,17.40
2018-05-13T01:58:00.440Z,17.10
2018-05-13T02:00:28.054Z,17.20
2018-05-13T02:02:55.653Z,18.27
2018-05-13T02:05:23.327Z,16.20
2018-05-13T02:07:50.944Z,17.73
2018-05-13T02:10:18.612Z,21.93
2018-05-13T02:12:46.205Z,16.50
2018-05-13T02:15:13.870Z,15.73
2018-05-13T02:17:41.668Z,20.50
2018-05-13T02:20:09.229Z,19.00
2018-05-13T02:22:37.146Z,18.73
2018-05-13T02:25:04.733Z,19.67
2018-05-13T02:27:32.330Z,19.67
2018-05-13T02:29:59.980Z,17.10
2018-05-13T02:32:27.904Z,19.60
2018-05-13T02:34:55.465Z,19.23
2018-05-13T02:37:23.315Z,17.73
2018-05-13T02:39:51.021Z,22.13
2018-05-13T02:42:18.668Z,16.87
2018-05-13T02:44:46.407Z,19.17
2018-05-13T02:47:14.355Z,26.50
2018-05-13T02:49:42.000Z,24.80
2018-05-13T02:52:09.582Z,21.93
2018-05-13T02:54:37.265Z,18.33
2018-05-13T02:57:04.833Z,21.57
2018-05-13T02:59:32.869Z,19.50
2018-05-13T03:02:00.503Z,25.80
2018-05-13T03:04:28.302Z,21.70
2018-05-13T03:06:55.893Z,21.87
2018-05-13T03:09:23.611Z,20.80
2018-05-13T03:11:51.231Z,25.83
2018-05-13T03:14:18.788Z,23.80
2018-05-13T03:16:46.423Z,23.40
2018-05-13T03:19:14.026Z,20.50
2018-05-13T03:21:41.719Z,23.50
2018-05-13T03:24:09.514Z,20.80
2018-05-13T03:26:37.394Z,21.03
2018-05-13T03:29:04.971Z,24.43
2018-05-13T03:31:32.544Z,24.30
2018-05-13T03:34:00.371Z,29.00
2018-05-13T03:36:27.972Z,23.93
2018-05-13T03:38:55.551Z,24.40
2018-05-13T03:41:23.223Z,21.80
2018-05-13T03:43:50.836Z,24.40
2018-05-13T03:46:18.617Z,29.17
2018-05-13T03:48:46.186Z,26.97
2018-05-13T03:51:13.748Z,22.90
2018-05-13T03:53:41.338Z,30.17
2018-05-13T03:56:08.975Z,28.80
2018-05-13T03:58:36.618Z,33.20
2018-05-13T04:01:04.207Z,41.53
2018-05-13T04:03:31.792Z,27.70
2018-05-13T04:05:59.456Z,29.33
2018-05-13T04:08:47.764Z,31.47
2018-05-13T04:11:27.296Z,25.33
2018-05-13T04:14:06.801Z,27.90
2018-05-13T04:16:34.424Z,34.70
2018-05-13T04:19:02.057Z,30.63
2018-05-13T04:21:29.668Z,28.00
2018-05-13T04:23:57.258Z,30.30
2018-05-13T04:26:26.485Z,36.83
2018-05-13T04:28:54.823Z,26.83
2018-05-13T04:31:22.615Z,31.60
2018-05-13T04:33:50.175Z,28.47
2018-05-13T04:36:18.109Z,31.70
2018-05-13T04:38:45.787Z,34.07
2018-05-13T04:41:13.358Z,35.87
2018-05-13T04:43:40.988Z,28.07
2018-05-13T04:46:08.581Z,31.90
2018-05-13T04:48:36.166Z,33.73
2018-05-13T04:51:03.756Z,35.60
2018-05-13T04:53:31.416Z,32.60
2018-05-13T04:55:59.033Z,32.57
2018-05-13T04:58:26.651Z,35.07
2018-05-13T05:00:54.220Z,35.13
2018-05-13T05:03:22.011Z,31.90
2018-05-13T05:05:49.843Z,36.13
2018-05-13T05:08:17.407Z,31.40
2018-05-13T05:10:45.506Z,37.13
2018-05-13T05:13:14.420Z,39.00
2018-05-13T05:15:42.007Z,39.43
2018-05-13T05:18:09.634Z,35.40
2018-05-13T05:20:37.204Z,38.63
2018-05-13T05:23:04.804Z,35.83
2018-05-13T05:25:32.401Z,39.47
2018-05-13T05:27:59.991Z,30.57
2018-05-13T05:30:27.819Z,38.30
2018-05-13T05:32:55.459Z,39.40
2018-05-13T05:35:23.168Z,36.27
2018-05-13T05:37:51.020Z,34.27
2018-05-13T05:40:18.596Z,38.10
2018-05-13T05:42:46.207Z,33.73
2018-05-13T05:45:13.830Z,38.33
2018-05-13T05:47:41.477Z,42.40
2018-05-13T05:50:09.083Z,32.43
2018-05-13T05:52:36.723Z,37.33
2018-05-13T05:55:04.348Z,33.23
2018-05-13T05:57:31.921Z,32.77
2018-05-13T05:59:59.531Z,40.57
2018-05-13T06:02:27.162Z,37.23
2018-05-13T06:04:55.387Z,32.33
2018-05-13T06:07:23.001Z,36.07
2018-05-13T06:09:50.584Z,38.53
2018-05-13T06:12:18.304Z,39.80
2018-05-13T06:14:45.870Z,33.00
2018-05-13T06:17:13.480Z,36.67
2018-05-13T06:19:41.475Z,35.77
2018-05-13T06:22:08.990Z,38.83
2018-05-13T06:24:36.620Z,34.70
2018-05-13T06:27:04.234Z,35.63
2018-05-13T06:29:31.856Z,33.50
2018-05-13T06:31:59.524Z,32.37
2018-05-13T06:34:27.158Z,35.53
2018-05-13T06:36:54.737Z,39.47
2018-05-13T06:39:22.377Z,35.57
2018-05-13T06:41:50.061Z,36.77
2018-05-13T06:44:17.633Z,36.17
2018-05-13T06:46:45.192Z,33.33
2018-05-13T06:49:13.000Z,32.23
2018-05-13T06:51:40.754Z,32.97
2018-05-13T06:54:08.440Z,37.23
2018-05-13T06:56:37.040Z,30.10
2018-05-13T06:59:04.603Z,32.43
2018-05-13T07:01:32.233Z,31.73
2018-05-13T07:03:59.860Z,33.00
2018-05-13T07:06:27.494Z,37.73
2018-05-13T07:08:55.132Z,37.33
2018-05-13T07:11:22.855Z,29.30
2018-05-13T07:13:50.514Z,31.80
2018-05-13T07:16:18.080Z,35.87
2018-05-13T07:18:45.674Z,36.73
2018-05-13T07:21:13.253Z,30.57
2018-05-13T07:23:40.923Z,37.70
2018-05-13T07:26:08.693Z,31.87
2018-05-13T07:28:36.662Z,32.47
2018-05-13T07:31:04.268Z,29.60
2018-05-13T07:33:31.907Z,32.43
2018-05-13T07:35:59.476Z,27.43
2018-05-13T07:38:27.396Z,31.70
2018-05-13T07:40:55.115Z,23.10
2018-05-13T07:43:22.997Z,22.53
2018-05-13T07:45:50.617Z,26.03
2018-05-13T07:48:18.197Z,25.03
2018-05-13T07:50:45.890Z,22.93
2018-05-13T07:53:13.478Z,23.47
2018-05-13T07:55:41.111Z,25.77
2018-05-13T07:58:10.843Z,29.43
2018-05-13T08:00:38.471Z,29.23
2018-05-13T08:03:06.031Z,22.73
2018-05-13T08:05:33.619Z,21.47
2018-05-13T08:08:01.471Z,22.47
2018-05-13T08:10:29.124Z,20.73
2018-05-13T08:12:56.736Z,19.73
2018-05-13T08:15:24.370Z,19.17
2018-05-13T08:17:51.984Z,19.70
2018-05-13T08:20:19.732Z,22.93
2018-05-13T08:22:47.223Z,23.73
2018-05-13T08:25:15.315Z,21.30
2018-05-13T08:27:42.917Z,21.43
2018-05-13T08:30:10.479Z,22.40
2018-05-13T08:32:38.107Z,21.47
2018-05-13T08:35:05.666Z,17.83
2018-05-13T08:37:33.241Z,18.87
2018-05-13T08:40:01.078Z,19.27
2018-05-13T08:42:28.897Z,20.00
2018-05-13T08:44:56.903Z,19.20
2018-05-13T08:47:24.505Z,22.20
2018-05-13T08:49:52.064Z,19.03
2018-05-13T08:52:19.716Z,24.47
2018-05-13T08:54:47.289Z,24.40
2018-05-13T08:57:14.973Z,25.30
2018-05-13T08:59:42.669Z,23.13
2018-05-13T09:02:10.220Z,25.60
2018-05-13T09:04:38.019Z,23.83
2018-05-13T09:07:05.584Z,27.07
2018-05-13T09:09:33.184Z,29.47
2018-05-13T09:12:00.992Z,22.60
2018-05-13T09:14:28.720Z,22.60
2018-05-13T09:16:56.264Z,25.07
2018-05-13T09:19:23.846Z,22.40
2018-05-13T09:21:51.788Z,23.40
2018-05-13T09:24:19.583Z,23.80
2018-05-13T09:26:47.157Z,26.27
2018-05-13T09:29:14.831Z,26.80
2018-05-13T09:31:42.415Z,25.83
2018-05-13T09:34:10.078Z,25.10
2018-05-13T09:36:38.578Z,25.30
2018-05-13T09:39:06.408Z,31.13
2018-05-13T09:41:34.013Z,27.20
2018-05-13T09:44:01.684Z,25.70
2018-05-13T09:46:29.239Z,23.97
2018-05-13T09:48:56.807Z,26.67
2018-05-13T09:51:24.569Z,20.57
2018-05-13T09:53:52.069Z,31.10
2018-05-13T09:56:20.501Z,27.60
2018-05-13T09:58:48.354Z,23.40
2018-05-13T10:01:16.053Z,22.23
2018-05-13T10:03:43.625Z,24.87
2018-05-13T10:06:11.198Z,28.10
2018-05-13T10:08:39.102Z,23.80
2018-05-13T10:11:07.112Z,25.13
2018-05-13T10:13:36.052Z,17.83
2018-05-13T10:16:03.829Z,24.13
2018-05-13T10:18:32.193Z,24.57
2018-05-13T10:21:00.073Z,25.17
2018-05-13T10:23:28.589Z,24.23
2018-05-13T10:25:56.340Z,25.23
2018-05-13T10:28:23.994Z,22.80
2018-05-13T10:30:51.599Z,22.37
2018-05-13T10:33:19.172Z,22.70
2018-05-13T10:35:46.874Z,22.53
2018-05-13T10:38:14.438Z,23.40
2018-05-13T10:40:42.070Z,25.50
2018-05-13T10:43:09.780Z,23.87
2018-05-13T10:45:37.360Z,23.20
2018-05-13T10:48:04.916Z,22.77
2018-05-13T10:50:32.580Z,25.10
2018-05-13T10:53:00.193Z,23.13
2018-05-13T10:55:27.783Z,19.13
2018-05-13T10:57:55.405Z,24.47
2018-05-13T11:00:23.399Z,23.93
2018-05-13T11:02:50.979Z,22.33
2018-05-13T11:05:18.544Z,23.60
2018-05-13T11:07:46.126Z,20.57
2018-05-13T11:10:13.729Z,22.33
2018-05-13T11:12:41.423Z,22.23
2018-05-13T11:15:09.010Z,21.30
2018-05-13T11:17:36.926Z,20.07
2018-05-13T11:20:04.569Z,20.43
2018-05-13T11:22:32.375Z,20.00
2018-05-13T11:24:59.975Z,18.60
2018-05-13T11:27:27.565Z,20.50
2018-05-13T11:29:55.128Z,22.70
2018-05-13T11:32:23.272Z,22.87
2018-05-13T11:34:51.210Z,27.27
2018-05-13T11:37:18.846Z,20.27
2018-05-13T11:39:46.992Z,22.73
2018-05-13T11:42:14.869Z,24.30
2018-05-13T11:44:42.682Z,19.20
2018-05-13T11:47:10.274Z,20.10
2018-05-13T11:49:37.860Z,19.00
2018-05-13T11:52:05.457Z,22.57
2018-05-13T11:54:33.069Z,20.33
2018-05-13T11:57:00.841Z,17.63
2018-05-13T11:59:28.402Z,17.77
2018-05-13T12:01:56.848Z,17.63
2018-05-13T12:04:24.503Z,19.53
2018-05-13T12:06:52.087Z,21.10
2018-05-13T12:09:19.678Z,17.90
2018-05-13T12:11:47.351Z,15.30
2018-05-13T12:14:14.906Z,17.43
2018-05-13T12:16:42.493Z,17.47
2018-05-13T12:19:10.056Z,19.33
2018-05-13T12:21:37.617Z,18.33
2018-05-13T12:24:05.308Z,18.30
2018-05-13T12:26:32.884Z,15.77
2018-05-13T12:29:00.712Z,19.53
2018-05-13T12:31:28.292Z,16.90
2018-05-13T12:33:55.861Z,21.03
2018-05-13T12:36:23.662Z,21.03
2018-05-13T12:38:53.319Z,19.80
2018-05-13T12:41:20.892Z,17.90
2018-05-13T12:43:48.800Z,17.00
2018-05-13T12:46:16.372Z,16.67
2018-05-13T12:48:44.097Z,17.70
2018-05-13T12:51:11.674Z,19.17
2018-05-13T12:53:39.315Z,19.93
2018-05-13T12:56:06.907Z,20.43
2018-05-13T12:58:34.477Z,24.03
2018-05-13T13:01:02.116Z,19.77
2018-05-13T13:03:29.722Z,18.07
2018-05-13T13:05:57.313Z,24.60
2018-05-13T13:08:24.883Z,18.97
2018-05-13T13:10:52.709Z,21.13
2018-05-13T13:13:20.348Z,21.13
2018-05-13T13:15:47.917Z,17.53
2018-05-13T13:18:15.528Z,23.30
2018-05-13T13:20:43.098Z,19.13
2018-05-13T13:23:10.738Z,20.50
2018-05-13T13:25:38.299Z,22.30
2018-05-13T13:28:05.921Z,22.07
2018-05-13T13:30:33.906Z,19.63
2018-05-13T13:33:01.440Z,23.03
2018-05-13T13:35:29.042Z,25.37
2018-05-13T13:37:56.611Z,19.77
2018-05-13T13:40:24.288Z,23.40
2018-05-13T13:42:51.872Z,21.33
2018-05-13T13:45:19.639Z,23.80
2018-05-13T13:47:47.206Z,20.37
2018-05-13T13:50:14.998Z,21.83
2018-05-13T13:52:42.698Z,26.80
2018-05-13T13:55:10.491Z,31.23
2018-05-13T13:57:38.054Z,27.80
2018-05-13T14:00:05.717Z,26.03
2018-05-13T14:02:33.519Z,26.90
2018-05-13T14:05:01.177Z,29.60
2018-05-13T14:07:29.047Z,22.63
2018-05-13T14:09:56.637Z,31.67
2018-05-13T14:12:24.435Z,28.03
2018-05-13T14:14:52.055Z,28.80
2018-05-13T14:17:22.891Z,25.53
2018-05-13T14:19:50.716Z,28.10
2018-05-13T14:22:18.287Z,32.80
2018-05-13T14:24:47.107Z,36.23
2018-05-13T14:27:14.982Z,39.80
2018-05-13T14:29:43.090Z,34.03
2018-05-13T14:32:10.676Z,35.30
2018-05-13T14:34:38.267Z,36.70
2018-05-13T14:37:06.055Z,36.20
2018-05-13T14:39:33.692Z,34.47
2018-05-13T14:42:01.502Z,42.90
2018-05-13T14:47:21.633Z,43.23
2018-05-13T14:49:49.241Z,40.80
2018-05-13T14:52:17.098Z,66.83
2018-05-13T14:54:44.715Z,74.30
2018-05-13T14:57:12.521Z,78.77
2018-05-13T14:59:40.207Z,75.10
2018-05-13T15:02:07.861Z,90.57
2018-05-13T15:04:35.664Z,96.23
2018-05-13T15:07:03.274Z,99.70
2018-05-13T15:09:32.173Z,115.40
2018-05-13T15:11:59.886Z,111.17
2018-05-13T15:14:27.503Z,120.40
2018-05-13T15:16:55.990Z,126.10
2018-05-13T15:19:23.664Z,118.10
2018-05-13T15:21:51.264Z,122.97
2018-05-13T15:24:19.816Z,129.57
2018-05-13T15:26:47.401Z,132.07
2018-05-13T15:29:15.089Z,124.23
2018-05-13T15:31:42.868Z,119.83
2018-05-13T15:34:15.868Z,127.93
2018-05-13T15:36:45.132Z,143.63
2018-05-13T15:39:14.521Z,121.70
2018-05-13T15:41:42.787Z,123.80
2018-05-13T15:44:12.405Z,122.83
2018-05-13T15:46:40.273Z,119.93
2018-05-13T15:49:08.208Z,124.87
2018-05-13T15:51:36.697Z,135.97
2018-05-13T15:54:05.053Z,105.57
2018-05-13T15:56:33.084Z,75.87
2018-05-13T15:59:01.561Z,90.23
2018-05-13T16:01:29.171Z,108.33
2018-05-13T16:03:57.468Z,99.30
2018-05-13T16:06:25.203Z,85.43
2018-05-13T16:08:53.037Z,100.57
2018-05-13T16:11:20.627Z,96.70
2018-05-13T16:13:56.811Z,106.17
2018-05-13T16:16:24.441Z,89.50
2018-05-13T16:18:52.066Z,97.07
2018-05-13T16:21:21.532Z,54.43
2018-05-13T16:23:49.181Z,48.27
2018-05-13T16:26:16.829Z,32.03
2018-05-13T16:28:45.052Z,23.87
2018-05-13T16:31:13.861Z,22.30
2018-05-13T16:33:42.318Z,29.83
2018-05-13T16:36:09.905Z,44.73
2018-05-13T16:38:37.972Z,109.80
2018-05-13T16:41:06.157Z,136.63
2018-05-13T16:43:35.383Z,114.33
2018-05-13T16:46:03.018Z,111.53
2018-05-13T16:48:30.670Z,122.17
2018-05-13T16:50:58.803Z,117.47
2018-05-13T16:53:27.626Z,118.03
2018-05-13T16:55:55.602Z,142.93
2018-05-13T16:58:24.030Z,143.57
2018-05-13T17:00:51.736Z,127.57
2018-05-13T17:03:19.469Z,142.60
2018-05-13T17:05:47.092Z,133.60
2018-05-13T17:08:14.726Z,147.97
2018-05-13T17:10:42.340Z,137.80
2018-05-13T17:13:10.170Z,133.30
2018-05-13T17:15:37.769Z,140.07
2018-05-13T17:18:05.365Z,141.63
2018-05-13T17:20:33.102Z,148.60
2018-05-13T17:23:00.681Z,139.53
2018-05-13T17:25:28.249Z,148.60
2018-05-13T17:27:55.875Z,149.90
2018-05-13T17:30:23.728Z,151.83
2018-05-13T17:32:52.046Z,164.40
2018-05-13T17:35:19.925Z,174.37
2018-05-13T17:37:47.897Z,171.37
2018-05-13T17:40:15.630Z,159.90
2018-05-13T17:42:43.310Z,163.73
2018-05-13T17:45:11.009Z,156.07
2018-05-13T17:47:38.655Z,169.67
2018-05-13T17:50:06.312Z,154.47
2018-05-13T17:52:34.020Z,158.13
2018-05-13T17:55:01.791Z,142.33
2018-05-13T17:57:29.563Z,130.57
2018-05-13T17:59:57.334Z,123.07
2018-05-13T18:02:26.626Z,127.93
2018-05-13T18:04:54.341Z,101.13
2018-05-13T18:07:22.062Z,87.37
2018-05-13T18:09:49.780Z,53.13
2018-05-13T18:12:17.414Z,61.03
2018-05-13T18:14:45.175Z,64.70
2018-05-13T18:17:12.995Z,66.83
2018-05-13T18:19:40.641Z,80.53
2018-05-13T18:22:08.280Z,79.37
2018-05-13T18:24:36.016Z,82.07
2018-05-13T18:27:03.564Z,85.67
2018-05-13T18:29:31.170Z,84.80
2018-05-13T18:31:58.856Z,88.03
2018-05-13T18:34:26.697Z,91.40
2018-05-13T18:36:54.648Z,104.73
2018-05-13T18:39:22.350Z,92.93
2018-05-13T18:41:52.799Z,89.77
2018-05-13T18:44:20.558Z,99.87
2018-05-13T18:46:48.134Z,98.53
2018-05-13T18:49:15.758Z,96.10
2018-05-13T18:51:43.639Z,93.10
2018-05-13T18:54:11.359Z,82.93
2018-05-13T18:56:39.074Z,80.20
2018-05-13T18:59:06.710Z,79.57
2018-05-13T19:01:34.329Z,73.07
2018-05-13T19:04:01.973Z,71.30
2018-05-13T19:06:29.763Z,64.10
2018-05-13T19:08:57.306Z,64.30
2018-05-13T19:11:25.310Z,58.83
2018-05-13T19:13:52.925Z,55.73
2018-05-13T19:16:20.539Z,53.47
2018-05-13T19:18:48.272Z,53.03
2018-05-13T19:21:15.861Z,52.10
2018-05-13T19:23:43.493Z,48.33
2018-05-13T19:26:11.133Z,52.30
2018-05-13T19:28:38.959Z,54.37
2018-05-13T19:31:06.640Z,69.83
2018-05-13T19:33:34.259Z,75.90
2018-05-13T19:36:01.902Z,80.20
2018-05-13T19:38:29.559Z,92.57
2018-05-13T19:40:57.320Z,94.67
2018-05-13T19:43:25.248Z,106.43
2018-05-13T19:45:52.857Z,102.50
2018-05-13T19:48:20.588Z,105.20
2018-05-13T19:50:48.301Z,134.10
2018-05-13T19:53:15.961Z,107.50
2018-05-13T19:55:43.532Z,129.60
2018-05-13T19:58:11.664Z,115.50
2018-05-13T20:00:39.296Z,122.27
2018-05-13T20:03:07.031Z,123.77
2018-05-13T20:05:34.889Z,129.97
2018-05-13T20:08:02.520Z,128.60
2018-05-13T20:10:30.125Z,123.23
2018-05-13T20:12:57.758Z,118.67
2018-05-13T20:15:25.476Z,118.13
2018-05-13T20:17:53.420Z,115.43
2018-05-13T20:20:21.036Z,104.33
2018-05-13T20:23:00.428Z,114.43
2018-05-13T20:25:28.050Z,113.50
2018-05-13T20:27:55.695Z,105.17
2018-05-13T20:30:23.557Z,100.67
2018-05-13T20:32:51.272Z,95.63
2018-05-13T20:35:18.879Z,94.20
2018-05-13T20:37:46.468Z,80.50
2018-05-13T20:40:14.524Z,64.60
2018-05-13T20:42:42.303Z,71.30
2018-05-13T20:45:09.883Z,54.10
2018-05-13T20:47:37.567Z,49.20
2018-05-13T20:50:05.162Z,49.10
2018-05-13T20:52:33.661Z,52.43
2018-05-13T20:55:01.326Z,46.37
2018-05-13T20:57:29.333Z,49.63
2018-05-13T20:59:56.933Z,43.73
2018-05-13T21:02:24.540Z,47.03
2018-05-13T21:04:52.162Z,45.10
2018-05-13T21:07:20.228Z,45.60
2018-05-13T21:09:47.886Z,45.53
2018-05-13T21:12:15.468Z,45.67
2018-05-13T21:14:43.103Z,51.70
2018-05-13T21:17:10.817Z,46.60
2018-05-13T21:19:38.487Z,41.77
2018-05-13T21:22:06.098Z,41.33
2018-05-13T21:24:35.029Z,43.10
2018-05-13T21:27:02.657Z,45.77
2018-05-13T21:29:30.379Z,46.93
2018-05-13T21:31:58.411Z,45.03
2018-05-13T21:34:25.989Z,47.07
2018-05-13T21:36:53.828Z,59.30
2018-05-13T21:39:21.529Z,55.30
2018-05-13T21:41:49.488Z,53.30
2018-05-13T21:44:17.248Z,60.50
2018-05-13T21:46:44.890Z,64.13
2018-05-13T21:49:12.673Z,58.50
2018-05-13T21:51:40.244Z,67.37
2018-05-13T21:54:07.844Z,62.73
2018-05-13T21:56:35.524Z,69.53
2018-05-13T21:59:03.106Z,72.03
2018-05-13T22:01:30.801Z,68.87
2018-05-13T22:03:58.398Z,66.93
2018-05-13T22:06:26.003Z,68.03
2018-05-13T22:08:53.669Z,74.63
2018-05-13T22:11:21.281Z,77.70
2018-05-13T22:13:49.383Z,68.90
2018-05-13T22:16:17.292Z,73.70
2018-05-13T22:18:45.055Z,68.03
2018-05-13T22:21:12.911Z,66.70
2018-05-13T22:23:40.562Z,71.80
2018-05-13T22:26:08.202Z,72.23
2018-05-13T22:28:36.031Z,70.53
2018-05-13T22:31:03.708Z,69.60
2018-05-13T22:33:31.389Z,74.43
2018-05-13T22:35:59.014Z,68.10
2018-05-13T22:38:27.263Z,72.87
2018-05-13T22:40:54.838Z,70.67
2018-05-13T22:43:22.483Z,70.97
2018-05-13T22:45:50.074Z,76.90
2018-05-13T22:48:17.925Z,79.00
2018-05-13T22:50:45.740Z,91.20
2018-05-13T22:53:13.712Z,91.03
2018-05-13T22:55:41.343Z,82.43
2018-05-13T22:58:08.919Z,92.50
2018-05-13T23:00:36.855Z,82.17
2018-05-13T23:03:04.445Z,87.60
2018-05-13T23:05:32.503Z,92.30
2018-05-13T23:08:00.065Z,92.40
2018-05-13T23:10:27.678Z,92.23
2018-05-13T23:12:55.261Z,98.10
2018-05-13T23:15:22.893Z,102.17
2018-05-13T23:17:50.876Z,113.33
2018-05-13T23:20:19.443Z,106.30
2018-05-13T23:23:01.640Z,112.20
2018-05-13T23:25:29.612Z,107.97
2018-05-13T23:27:57.820Z,103.57
2018-05-13T23:30:25.853Z,111.33
2018-05-13T23:32:53.773Z,127.77
2018-05-13T23:35:21.405Z,122.83
2018-05-13T23:37:49.124Z,125.57
2018-05-13T23:40:16.960Z,119.73
2018-05-13T23:42:44.627Z,130.27
2018-05-13T23:45:12.243Z,129.30
2018-05-13T23:47:39.967Z,125.70
2018-05-13T23:50:07.803Z,130.93
2018-05-13T23:52:35.446Z,120.43
2018-05-13T23:55:03.369Z,129.17
2018-05-13T23:57:31.065Z,135.17
2018-05-13T23:59:58.675Z,129.90
